Sorensen Miller — WDD2540 — position and weather

sailwx.info

Track history (hours):
 
Tides and Currents Weather Stations Pressure Air Temp Water Temp Dewpoint Dewpoint Depression Visibility Wind Speed Wind Dir Waves Ship Positions

Sorensen Miller

Owner: Miller's Tug & Barge, Staten Island, NY. More information available from US FCC via Universal Licensing System and Coast Guard Vessel Documentation Center.

Last reported at 2017-Nov-14 19:46 UTC. Time now 2017-Nov-22 22:01 UTC.
Position N 40°38' W 074°04'.
Warning: this ship's position is 8 days out of date.

; draft 3 m.

Type: . MMSI: 367116570.

Date/timePositionNaut miles runAvg speedWind from/ knotsBaromVisibWave heightAir tempDewpointWater temp
2017-Nov-14 19:46N 40°38' W 074°04'2 6.9
2017-Nov-14 19:30N 40°39' W 074°07'4 8.0
2017-Nov-14 19:00N 40°38' W 074°12'0 0.0
2017-Nov-14 18:30N 40°38' W 074°12'2 3.6
2017-Nov-14 18:00N 40°39' W 074°09'612.7
2017-Nov-14 17:31N 40°41' W 074°02'713.8
2017-Nov-14 17:00N 40°47' W 073°56'813.9
2017-Nov-14 16:25N 40°50' W 073°46'5914.3
2017-Nov-14 12:17N 41°07' W 072°32'616.5
2017-Nov-14 11:55N 41°09' W 072°24'916.4
2017-Nov-14 11:21N 41°12' W 072°12'11411.6
2017-Nov-14 01:31N 42°26' W 070°15'115.5
2017-Nov-14 01:29N 42°26' W 070°15'715.2
2017-Nov-14 01:00N 42°33' W 070°12'815.7
2017-Nov-14 00:30N 42°41' W 070°08'132 5.2
2017-Nov-12 23:20N 41°11' W 072°17'413.3
2017-Nov-12 23:00N 41°09' W 072°23'713.3
2017-Nov-12 22:30N 41°07' W 072°31'713.4
2017-Nov-12 22:00N 41°06' W 072°40'5313.5
2017-Nov-12 18:06N 40°50' W 073°46'113.3
2017-Nov-12 18:00N 40°49' W 073°47'612.9
2017-Nov-12 17:30N 40°47' W 073°55'612.9
2017-Nov-12 17:00N 40°42' W 074°00'510.1
2017-Nov-12 16:31N 40°39' W 074°05'4 8.0
2017-Nov-12 16:00N 40°39' W 074°11'1 2.0
2017-Nov-12 15:30N 40°38' W 074°12'0 0.0
2017-Nov-12 15:00N 40°38' W 074°12'1 1.3
2017-Nov-12 14:30N 40°39' W 074°11'510.8
2017-Nov-12 14:01N 40°38' W 074°04'0 0.6
2017-Nov-12 13:30N 40°38' W 074°04'0 0.0
2017-Nov-12 13:01N 40°38' W 074°04'0 0.0
2017-Nov-12 12:30N 40°38' W 074°04'0 0.1
2017-Nov-12 12:01N 40°38' W 074°04'0 0.0
2017-Nov-12 11:30N 40°38' W 074°04'0 0.0
2017-Nov-12 11:01N 40°38' W 074°04'0 0.0
2017-Nov-12 10:30N 40°38' W 074°04'0 0.1
2017-Nov-12 10:00N 40°38' W 074°04'0 0.0
2017-Nov-12 09:30N 40°38' W 074°04'0 0.0
2017-Nov-12 09:00N 40°38' W 074°04'0 0.0
2017-Nov-12 08:30N 40°38' W 074°04'0 0.0
2017-Nov-12 08:00N 40°38' W 074°04'0 0.0
2017-Nov-12 07:30N 40°38' W 074°04'0 0.0
2017-Nov-12 07:00N 40°38' W 074°04'0 0.0
2017-Nov-12 06:30N 40°38' W 074°04'0 0.1
2017-Nov-12 06:01N 40°38' W 074°04'0 0.1
2017-Nov-12 05:31N 40°38' W 074°04'0 0.0
2017-Nov-12 05:00N 40°38' W 074°04'0 0.1
2017-Nov-12 04:31N 40°38' W 074°04'0 0.0
2017-Nov-12 04:01N 40°38' W 074°04'0 0.0
2017-Nov-12 03:30N 40°38' W 074°04'0 0.0
2017-Nov-12 03:00N 40°38' W 074°04'0 0.0
2017-Nov-12 02:29N 40°38' W 074°04'0 0.1
2017-Nov-12 02:01N 40°38' W 074°04'0 0.0
2017-Nov-12 01:30N 40°38' W 074°04'0 0.0
2017-Nov-12 01:01N 40°38' W 074°04'0 0.1
2017-Nov-12 00:31N 40°38' W 074°04'0 0.0
2017-Nov-12 00:00N 40°38' W 074°04'0 0.1
2017-Nov-11 23:30N 40°38' W 074°04'0 0.1
2017-Nov-11 23:00N 40°38' W 074°04'0 0.1
2017-Nov-11 22:30N 40°38' W 074°04'0 0.0
2017-Nov-11 22:00N 40°38' W 074°04'0 0.0
2017-Nov-11 21:30N 40°38' W 074°04'0 0.0
2017-Nov-11 21:00N 40°38' W 074°04'0 0.0
2017-Nov-11 20:30N 40°38' W 074°04'0 0.0
2017-Nov-11 19:22N 40°38' W 074°04'0 0.0
2017-Nov-11 19:00N 40°38' W 074°04'0 0.0
2017-Nov-11 18:30N 40°38' W 074°04'0 0.0
2017-Nov-11 18:00N 40°38' W 074°04'0 0.0
2017-Nov-11 17:30N 40°38' W 074°04'0 0.0
2017-Nov-11 17:00N 40°38' W 074°04'0 0.0
2017-Nov-11 16:30N 40°38' W 074°04'0 0.0
2017-Nov-11 16:00N 40°38' W 074°04'0 0.0
2017-Nov-11 15:30N 40°38' W 074°04'0 0.0
2017-Nov-11 15:00N 40°38' W 074°04'0 0.0
2017-Nov-11 14:30N 40°38' W 074°04'0 0.0
2017-Nov-11 14:00N 40°38' W 074°04'0 0.0
2017-Nov-11 13:30N 40°38' W 074°04'0 0.0
2017-Nov-11 13:00N 40°38' W 074°04'0 0.0
2017-Nov-11 12:30N 40°38' W 074°04'0 0.0
2017-Nov-11 12:00N 40°38' W 074°04'0 0.0
2017-Nov-11 11:30N 40°38' W 074°04'0 0.0
2017-Nov-11 11:00N 40°38' W 074°04'0 0.0
2017-Nov-11 10:30N 40°38' W 074°04'0 0.0
2017-Nov-11 10:00N 40°38' W 074°04'0 0.0
2017-Nov-11 09:30N 40°38' W 074°04'0 0.0
2017-Nov-11 09:00N 40°38' W 074°04'0 0.0
2017-Nov-11 08:30N 40°38' W 074°04'0 0.0
2017-Nov-11 08:00N 40°38' W 074°04'0 0.0
2017-Nov-11 07:30N 40°38' W 074°04'0 0.1
2017-Nov-11 07:00N 40°38' W 074°04'0 0.0
2017-Nov-11 06:30N 40°38' W 074°04'0 0.0
2017-Nov-11 06:00N 40°38' W 074°04'0 0.0
2017-Nov-11 05:30N 40°38' W 074°04'0 0.0
2017-Nov-11 05:00N 40°38' W 074°04'0 0.0
2017-Nov-11 04:30N 40°38' W 074°04'0 0.0
2017-Nov-11 04:00N 40°38' W 074°04'0 0.0
2017-Nov-11 03:30N 40°38' W 074°04'0 0.0
2017-Nov-11 03:00N 40°38' W 074°04'0 0.0
2017-Nov-11 02:30N 40°38' W 074°04'0 0.0
2017-Nov-11 02:00N 40°38' W 074°04'0 0.0
2017-Nov-11 01:30N 40°38' W 074°04'0 0.0
2017-Nov-11 01:00N 40°38' W 074°04'0 0.0
2017-Nov-11 00:30N 40°38' W 074°04'0 0.0
2017-Nov-11 00:00N 40°38' W 074°04'0 0.0
2017-Nov-10 23:30N 40°38' W 074°04'0 0.0
2017-Nov-10 23:00N 40°38' W 074°04'0 0.0
2017-Nov-10 22:30N 40°38' W 074°04'0 0.0
2017-Nov-10 22:00N 40°38' W 074°04'0 0.0
2017-Nov-10 21:30N 40°38' W 074°04'0 0.0
2017-Nov-10 21:00N 40°38' W 074°04'0 0.0
2017-Nov-10 20:30N 40°38' W 074°04'0 0.0
2017-Nov-10 20:00N 40°38' W 074°04'0 0.0
2017-Nov-10 19:30N 40°38' W 074°04'0 0.0
2017-Nov-10 19:00N 40°38' W 074°04'0 0.0
2017-Nov-10 18:30N 40°38' W 074°04'0 0.0
2017-Nov-10 18:00N 40°38' W 074°04'0 0.0
2017-Nov-10 17:30N 40°38' W 074°04'0 0.0
2017-Nov-10 17:00N 40°38' W 074°04'0 0.0
2017-Nov-10 16:30N 40°38' W 074°04'0 0.0
2017-Nov-10 16:00N 40°38' W 074°04'0 0.0
2017-Nov-10 15:30N 40°38' W 074°04'0 0.0
2017-Nov-10 15:00N 40°38' W 074°04'0 0.0
2017-Nov-10 14:30N 40°38' W 074°04'0 0.0
2017-Nov-10 14:00N 40°38' W 074°04'0 0.0
2017-Nov-10 13:30N 40°38' W 074°04'0 0.0
2017-Nov-10 13:00N 40°38' W 074°04'0 0.1
2017-Nov-10 12:30N 40°38' W 074°04'0 0.0
2017-Nov-10 12:00N 40°38' W 074°04'0 0.0
2017-Nov-10 11:30N 40°38' W 074°04'0 0.0
2017-Nov-10 11:00N 40°38' W 074°04'0 0.0
2017-Nov-10 10:30N 40°38' W 074°04'0 0.0
2017-Nov-10 10:00N 40°38' W 074°04'0 0.0
2017-Nov-10 09:30N 40°38' W 074°04'0 0.0
2017-Nov-10 09:00N 40°38' W 074°04'0 0.1
2017-Nov-10 08:30N 40°38' W 074°04'0 0.0
2017-Nov-10 08:00N 40°38' W 074°04'0 0.0
2017-Nov-10 07:30N 40°38' W 074°04'0 0.0
2017-Nov-10 07:00N 40°38' W 074°04'0 0.0
2017-Nov-10 06:30N 40°38' W 074°04'0 0.1
2017-Nov-10 06:00N 40°38' W 074°04'0 0.0
2017-Nov-10 05:30N 40°38' W 074°04'0 0.0
2017-Nov-10 05:00N 40°38' W 074°04'0 0.0
2017-Nov-10 04:30N 40°38' W 074°04'0 0.0
2017-Nov-10 04:00N 40°38' W 074°04'0 0.0
2017-Nov-10 03:30N 40°38' W 074°04'0 0.0
2017-Nov-10 03:00N 40°38' W 074°04'0 0.0
2017-Nov-10 02:30N 40°38' W 074°04'0 0.0
2017-Nov-10 02:00N 40°38' W 074°04'0 0.0
2017-Nov-10 01:30N 40°38' W 074°04'0 0.0
2017-Nov-10 01:00N 40°38' W 074°04'0 0.0
2017-Nov-10 00:30N 40°38' W 074°04'5 9.0
2017-Nov-10 00:00N 40°34' W 074°02'611.7
2017-Nov-09 23:27N 40°29' W 073°56'4011.7
2017-Nov-09 20:01N 39°49' W 074°03'014.7
2017-Nov-09 20:00N 39°49' W 074°03'713.5
2017-Nov-09 19:29N 39°43' W 074°05'713.7
2017-Nov-09 19:00N 39°36' W 074°08'58 5.5
2017-Nov-09 08:28N 39°08' W 075°13'613.7
2017-Nov-09 08:00N 39°13' W 075°18'612.9
2017-Nov-09 07:31N 39°18' W 075°23'612.4
2017-Nov-09 07:01N 39°23' W 075°28'611.5
2017-Nov-09 06:31N 39°27' W 075°33'3 6.9
2017-Nov-09 06:01N 39°30' W 075°33'3 6.5
2017-Nov-09 05:31N 39°34' W 075°35'510.6
2017-Nov-09 05:01N 39°33' W 075°41'510.0
2017-Nov-09 04:30N 39°32' W 075°48'4 8.5
2017-Nov-09 04:00N 39°31' W 075°53'511.0
2017-Nov-09 03:30N 39°28' W 075°59'713.5
2017-Nov-09 03:00N 39°23' W 076°05'714.0
2017-Nov-09 02:31N 39°19' W 076°13'13212.9
2017-Nov-08 16:13N 37°07' W 076°09'313.9
2017-Nov-08 16:00N 37°04' W 076°10'510.8
2017-Nov-08 15:30N 37°00' W 076°15'610.9
2017-Nov-08 15:00N 36°57' W 076°20'611.3
2017-Nov-08 14:30N 36°51' W 076°19'2 4.8
2017-Nov-08 14:00N 36°49' W 076°17'0 0.0
2017-Nov-08 13:30N 36°49' W 076°17'0 0.0
2017-Nov-08 13:00N 36°49' W 076°17'0 0.0
2017-Nov-08 12:30N 36°49' W 076°17'0 0.0
2017-Nov-08 12:00N 36°49' W 076°17'0 0.0
2017-Nov-08 11:30N 36°49' W 076°17'0 0.0
2017-Nov-08 11:00N 36°49' W 076°17'0 0.0
2017-Nov-08 10:30N 36°49' W 076°17'0 0.0
2017-Nov-08 10:00N 36°49' W 076°17'0 0.0
2017-Nov-08 09:30N 36°49' W 076°17'0 0.0
2017-Nov-08 09:00N 36°49' W 076°17'0 0.0
2017-Nov-08 08:30N 36°49' W 076°17'0 0.0
2017-Nov-08 08:00N 36°49' W 076°17'0 0.0
2017-Nov-08 07:30N 36°49' W 076°17'0 0.0
2017-Nov-08 07:00N 36°49' W 076°17'0 0.0
2017-Nov-08 06:30N 36°49' W 076°17'0 0.0
2017-Nov-08 06:00N 36°49' W 076°17'0 0.0
2017-Nov-08 05:30N 36°49' W 076°17'4 7.6
2017-Nov-08 05:00N 36°53' W 076°20'510.8
2017-Nov-08 04:30N 36°58' W 076°20'510.3
2017-Nov-08 04:00N 37°00' W 076°14'4 7.0
2017-Nov-08 03:30N 37°02' W 076°11'5 9.6
2017-Nov-08 03:00N 37°07' W 076°09'1 2.7
2017-Nov-08 02:30N 37°05' W 076°09'4 8.7
2017-Nov-08 02:00N 37°01' W 076°11'4 7.1
2017-Nov-08 01:30N 37°00' W 076°15'5 9.7
2017-Nov-08 01:00N 36°58' W 076°20'510.6
2017-Nov-08 00:30N 36°52' W 076°20'4 7.3
2017-Nov-08 00:00N 36°49' W 076°17'0 0.0
2017-Nov-07 23:30N 36°49' W 076°17'0 0.0
2017-Nov-07 23:00N 36°49' W 076°17'0 0.0
2017-Nov-07 22:30N 36°49' W 076°17'0 0.0
2017-Nov-07 22:00N 36°49' W 076°17'0 0.0
2017-Nov-07 21:30N 36°49' W 076°17'0 0.0
2017-Nov-07 21:00N 36°49' W 076°17'0 0.0
2017-Nov-07 20:30N 36°49' W 076°17'0 0.0
2017-Nov-07 19:15N 36°49' W 076°17'0 0.0
2017-Nov-07 18:23N 36°49' W 076°17'0 0.0
2017-Nov-07 18:00N 36°49' W 076°17'3 6.0
2017-Nov-07 17:30N 36°52' W 076°19'611.7
2017-Nov-07 17:00N 36°57' W 076°22'2 3.3
2017-Nov-07 16:15N 36°58' W 076°25'14 6.8
2017-Nov-07 14:11N 36°59' W 076°07'316.1
2017-Nov-07 14:00N 36°58' W 076°04'611.7
2017-Nov-07 13:30N 36°57' W 075°57'18311.6
2017-Nov-06 21:43N 39°38' W 074°07'314.2
2017-Nov-06 21:30N 39°41' W 074°05'714.0
2017-Nov-06 21:00N 39°48' W 074°04'  
Track history (hours):
 
Tides and Currents Weather Stations Pressure Air Temp Water Temp Dewpoint Dewpoint Depression Visibility Wind Speed Wind Dir Waves Ship Positions

Sorensen Miller

Owner: Miller's Tug & Barge, Staten Island, NY. More information available from US FCC via Universal Licensing System and Coast Guard Vessel Documentation Center.

Last reported at 2017-Nov-14 19:46 UTC. Time now 2017-Nov-22 22:01 UTC.
Position N 40°38' W 074°04'.
Warning: this ship's position is 8 days out of date.

; draft 3 m.

Type: . MMSI: 367116570.

Date/timePositionNaut miles runAvg speedWind from/ knotsBaromVisibWave heightAir tempDewpointWater temp
2017-Nov-14 19:46N 40°38' W 074°04'2 6.9
2017-Nov-14 19:30N 40°39' W 074°07'4 8.0
2017-Nov-14 19:00N 40°38' W 074°12'0 0.0
2017-Nov-14 18:30N 40°38' W 074°12'2 3.6
2017-Nov-14 18:00N 40°39' W 074°09'612.7
2017-Nov-14 17:31N 40°41' W 074°02'713.8
2017-Nov-14 17:00N 40°47' W 073°56'813.9
2017-Nov-14 16:25N 40°50' W 073°46'5914.3
2017-Nov-14 12:17N 41°07' W 072°32'616.5
2017-Nov-14 11:55N 41°09' W 072°24'916.4
2017-Nov-14 11:21N 41°12' W 072°12'11411.6
2017-Nov-14 01:31N 42°26' W 070°15'115.5
2017-Nov-14 01:29N 42°26' W 070°15'715.2
2017-Nov-14 01:00N 42°33' W 070°12'815.7
2017-Nov-14 00:30N 42°41' W 070°08'132 5.2
2017-Nov-12 23:20N 41°11' W 072°17'413.3
2017-Nov-12 23:00N 41°09' W 072°23'713.3
2017-Nov-12 22:30N 41°07' W 072°31'713.4
2017-Nov-12 22:00N 41°06' W 072°40'5313.5
2017-Nov-12 18:06N 40°50' W 073°46'113.3
2017-Nov-12 18:00N 40°49' W 073°47'612.9
2017-Nov-12 17:30N 40°47' W 073°55'612.9
2017-Nov-12 17:00N 40°42' W 074°00'510.1
2017-Nov-12 16:31N 40°39' W 074°05'4 8.0
2017-Nov-12 16:00N 40°39' W 074°11'1 2.0
2017-Nov-12 15:30N 40°38' W 074°12'0 0.0
2017-Nov-12 15:00N 40°38' W 074°12'1 1.3
2017-Nov-12 14:30N 40°39' W 074°11'510.8
2017-Nov-12 14:01N 40°38' W 074°04'0 0.6
2017-Nov-12 13:30N 40°38' W 074°04'0 0.0
2017-Nov-12 13:01N 40°38' W 074°04'0 0.0
2017-Nov-12 12:30N 40°38' W 074°04'0 0.1
2017-Nov-12 12:01N 40°38' W 074°04'0 0.0
2017-Nov-12 11:30N 40°38' W 074°04'0 0.0
2017-Nov-12 11:01N 40°38' W 074°04'0 0.0
2017-Nov-12 10:30N 40°38' W 074°04'0 0.1
2017-Nov-12 10:00N 40°38' W 074°04'0 0.0
2017-Nov-12 09:30N 40°38' W 074°04'0 0.0
2017-Nov-12 09:00N 40°38' W 074°04'0 0.0
2017-Nov-12 08:30N 40°38' W 074°04'0 0.0
2017-Nov-12 08:00N 40°38' W 074°04'0 0.0
2017-Nov-12 07:30N 40°38' W 074°04'0 0.0
2017-Nov-12 07:00N 40°38' W 074°04'0 0.0
2017-Nov-12 06:30N 40°38' W 074°04'0 0.1
2017-Nov-12 06:01N 40°38' W 074°04'0 0.1
2017-Nov-12 05:31N 40°38' W 074°04'0 0.0
2017-Nov-12 05:00N 40°38' W 074°04'0 0.1
2017-Nov-12 04:31N 40°38' W 074°04'0 0.0
2017-Nov-12 04:01N 40°38' W 074°04'0 0.0
2017-Nov-12 03:30N 40°38' W 074°04'0 0.0
2017-Nov-12 03:00N 40°38' W 074°04'0 0.0
2017-Nov-12 02:29N 40°38' W 074°04'0 0.1
2017-Nov-12 02:01N 40°38' W 074°04'0 0.0
2017-Nov-12 01:30N 40°38' W 074°04'0 0.0
2017-Nov-12 01:01N 40°38' W 074°04'0 0.1
2017-Nov-12 00:31N 40°38' W 074°04'0 0.0
2017-Nov-12 00:00N 40°38' W 074°04'0 0.1
2017-Nov-11 23:30N 40°38' W 074°04'0 0.1
2017-Nov-11 23:00N 40°38' W 074°04'0 0.1
2017-Nov-11 22:30N 40°38' W 074°04'0 0.0
2017-Nov-11 22:00N 40°38' W 074°04'0 0.0
2017-Nov-11 21:30N 40°38' W 074°04'0 0.0
2017-Nov-11 21:00N 40°38' W 074°04'0 0.0
2017-Nov-11 20:30N 40°38' W 074°04'0 0.0
2017-Nov-11 19:22N 40°38' W 074°04'0 0.0
2017-Nov-11 19:00N 40°38' W 074°04'0 0.0
2017-Nov-11 18:30N 40°38' W 074°04'0 0.0
2017-Nov-11 18:00N 40°38' W 074°04'0 0.0
2017-Nov-11 17:30N 40°38' W 074°04'0 0.0
2017-Nov-11 17:00N 40°38' W 074°04'0 0.0
2017-Nov-11 16:30N 40°38' W 074°04'0 0.0
2017-Nov-11 16:00N 40°38' W 074°04'0 0.0
2017-Nov-11 15:30N 40°38' W 074°04'0 0.0
2017-Nov-11 15:00N 40°38' W 074°04'0 0.0
2017-Nov-11 14:30N 40°38' W 074°04'0 0.0
2017-Nov-11 14:00N 40°38' W 074°04'0 0.0
2017-Nov-11 13:30N 40°38' W 074°04'0 0.0
2017-Nov-11 13:00N 40°38' W 074°04'0 0.0
2017-Nov-11 12:30N 40°38' W 074°04'0 0.0
2017-Nov-11 12:00N 40°38' W 074°04'0 0.0
2017-Nov-11 11:30N 40°38' W 074°04'0 0.0
2017-Nov-11 11:00N 40°38' W 074°04'0 0.0
2017-Nov-11 10:30N 40°38' W 074°04'0 0.0
2017-Nov-11 10:00N 40°38' W 074°04'0 0.0
2017-Nov-11 09:30N 40°38' W 074°04'0 0.0
2017-Nov-11 09:00N 40°38' W 074°04'0 0.0
2017-Nov-11 08:30N 40°38' W 074°04'0 0.0
2017-Nov-11 08:00N 40°38' W 074°04'0 0.0
2017-Nov-11 07:30N 40°38' W 074°04'0 0.1
2017-Nov-11 07:00N 40°38' W 074°04'0 0.0
2017-Nov-11 06:30N 40°38' W 074°04'0 0.0
2017-Nov-11 06:00N 40°38' W 074°04'0 0.0
2017-Nov-11 05:30N 40°38' W 074°04'0 0.0
2017-Nov-11 05:00N 40°38' W 074°04'0 0.0
2017-Nov-11 04:30N 40°38' W 074°04'0 0.0
2017-Nov-11 04:00N 40°38' W 074°04'0 0.0
2017-Nov-11 03:30N 40°38' W 074°04'0 0.0
2017-Nov-11 03:00N 40°38' W 074°04'0 0.0
2017-Nov-11 02:30N 40°38' W 074°04'0 0.0
2017-Nov-11 02:00N 40°38' W 074°04'0 0.0
2017-Nov-11 01:30N 40°38' W 074°04'0 0.0
2017-Nov-11 01:00N 40°38' W 074°04'0 0.0
2017-Nov-11 00:30N 40°38' W 074°04'0 0.0
2017-Nov-11 00:00N 40°38' W 074°04'0 0.0
2017-Nov-10 23:30N 40°38' W 074°04'0 0.0
2017-Nov-10 23:00N 40°38' W 074°04'0 0.0
2017-Nov-10 22:30N 40°38' W 074°04'0 0.0
2017-Nov-10 22:00N 40°38' W 074°04'0 0.0
2017-Nov-10 21:30N 40°38' W 074°04'0 0.0
2017-Nov-10 21:00N 40°38' W 074°04'0 0.0
2017-Nov-10 20:30N 40°38' W 074°04'0 0.0
2017-Nov-10 20:00N 40°38' W 074°04'0 0.0
2017-Nov-10 19:30N 40°38' W 074°04'0 0.0
2017-Nov-10 19:00N 40°38' W 074°04'0 0.0
2017-Nov-10 18:30N 40°38' W 074°04'0 0.0
2017-Nov-10 18:00N 40°38' W 074°04'0 0.0
2017-Nov-10 17:30N 40°38' W 074°04'0 0.0
2017-Nov-10 17:00N 40°38' W 074°04'0 0.0
2017-Nov-10 16:30N 40°38' W 074°04'0 0.0
2017-Nov-10 16:00N 40°38' W 074°04'0 0.0
2017-Nov-10 15:30N 40°38' W 074°04'0 0.0
2017-Nov-10 15:00N 40°38' W 074°04'0 0.0
2017-Nov-10 14:30N 40°38' W 074°04'0 0.0
2017-Nov-10 14:00N 40°38' W 074°04'0 0.0
2017-Nov-10 13:30N 40°38' W 074°04'0 0.0
2017-Nov-10 13:00N 40°38' W 074°04'0 0.1
2017-Nov-10 12:30N 40°38' W 074°04'0 0.0
2017-Nov-10 12:00N 40°38' W 074°04'0 0.0
2017-Nov-10 11:30N 40°38' W 074°04'0 0.0
2017-Nov-10 11:00N 40°38' W 074°04'0 0.0
2017-Nov-10 10:30N 40°38' W 074°04'0 0.0
2017-Nov-10 10:00N 40°38' W 074°04'0 0.0
2017-Nov-10 09:30N 40°38' W 074°04'0 0.0
2017-Nov-10 09:00N 40°38' W 074°04'0 0.1
2017-Nov-10 08:30N 40°38' W 074°04'0 0.0
2017-Nov-10 08:00N 40°38' W 074°04'0 0.0
2017-Nov-10 07:30N 40°38' W 074°04'0 0.0
2017-Nov-10 07:00N 40°38' W 074°04'0 0.0
2017-Nov-10 06:30N 40°38' W 074°04'0 0.1
2017-Nov-10 06:00N 40°38' W 074°04'0 0.0
2017-Nov-10 05:30N 40°38' W 074°04'0 0.0
2017-Nov-10 05:00N 40°38' W 074°04'0 0.0
2017-Nov-10 04:30N 40°38' W 074°04'0 0.0
2017-Nov-10 04:00N 40°38' W 074°04'0 0.0
2017-Nov-10 03:30N 40°38' W 074°04'0 0.0
2017-Nov-10 03:00N 40°38' W 074°04'0 0.0
2017-Nov-10 02:30N 40°38' W 074°04'0 0.0
2017-Nov-10 02:00N 40°38' W 074°04'0 0.0
2017-Nov-10 01:30N 40°38' W 074°04'0 0.0
2017-Nov-10 01:00N 40°38' W 074°04'0 0.0
2017-Nov-10 00:30N 40°38' W 074°04'5 9.0
2017-Nov-10 00:00N 40°34' W 074°02'611.7
2017-Nov-09 23:27N 40°29' W 073°56'4011.7
2017-Nov-09 20:01N 39°49' W 074°03'014.7
2017-Nov-09 20:00N 39°49' W 074°03'713.5
2017-Nov-09 19:29N 39°43' W 074°05'713.7
2017-Nov-09 19:00N 39°36' W 074°08'58 5.5
2017-Nov-09 08:28N 39°08' W 075°13'613.7
2017-Nov-09 08:00N 39°13' W 075°18'612.9
2017-Nov-09 07:31N 39°18' W 075°23'612.4
2017-Nov-09 07:01N 39°23' W 075°28'611.5
2017-Nov-09 06:31N 39°27' W 075°33'3 6.9
2017-Nov-09 06:01N 39°30' W 075°33'3 6.5
2017-Nov-09 05:31N 39°34' W 075°35'510.6
2017-Nov-09 05:01N 39°33' W 075°41'510.0
2017-Nov-09 04:30N 39°32' W 075°48'4 8.5
2017-Nov-09 04:00N 39°31' W 075°53'511.0
2017-Nov-09 03:30N 39°28' W 075°59'713.5
2017-Nov-09 03:00N 39°23' W 076°05'714.0
2017-Nov-09 02:31N 39°19' W 076°13'13212.9
2017-Nov-08 16:13N 37°07' W 076°09'313.9
2017-Nov-08 16:00N 37°04' W 076°10'510.8
2017-Nov-08 15:30N 37°00' W 076°15'610.9
2017-Nov-08 15:00N 36°57' W 076°20'611.3
2017-Nov-08 14:30N 36°51' W 076°19'2 4.8
2017-Nov-08 14:00N 36°49' W 076°17'0 0.0
2017-Nov-08 13:30N 36°49' W 076°17'0 0.0
2017-Nov-08 13:00N 36°49' W 076°17'0 0.0
2017-Nov-08 12:30N 36°49' W 076°17'0 0.0
2017-Nov-08 12:00N 36°49' W 076°17'0 0.0
2017-Nov-08 11:30N 36°49' W 076°17'0 0.0
2017-Nov-08 11:00N 36°49' W 076°17'0 0.0
2017-Nov-08 10:30N 36°49' W 076°17'0 0.0
2017-Nov-08 10:00N 36°49' W 076°17'0 0.0
2017-Nov-08 09:30N 36°49' W 076°17'0 0.0
2017-Nov-08 09:00N 36°49' W 076°17'0 0.0
2017-Nov-08 08:30N 36°49' W 076°17'0 0.0
2017-Nov-08 08:00N 36°49' W 076°17'0 0.0
2017-Nov-08 07:30N 36°49' W 076°17'0 0.0
2017-Nov-08 07:00N 36°49' W 076°17'0 0.0
2017-Nov-08 06:30N 36°49' W 076°17'0 0.0
2017-Nov-08 06:00N 36°49' W 076°17'0 0.0
2017-Nov-08 05:30N 36°49' W 076°17'4 7.6
2017-Nov-08 05:00N 36°53' W 076°20'510.8
2017-Nov-08 04:30N 36°58' W 076°20'510.3
2017-Nov-08 04:00N 37°00' W 076°14'4 7.0
2017-Nov-08 03:30N 37°02' W 076°11'5 9.6
2017-Nov-08 03:00N 37°07' W 076°09'1 2.7
2017-Nov-08 02:30N 37°05' W 076°09'4 8.7
2017-Nov-08 02:00N 37°01' W 076°11'4 7.1
2017-Nov-08 01:30N 37°00' W 076°15'5 9.7
2017-Nov-08 01:00N 36°58' W 076°20'510.6
2017-Nov-08 00:30N 36°52' W 076°20'4 7.3
2017-Nov-08 00:00N 36°49' W 076°17'0 0.0
2017-Nov-07 23:30N 36°49' W 076°17'0 0.0
2017-Nov-07 23:00N 36°49' W 076°17'0 0.0
2017-Nov-07 22:30N 36°49' W 076°17'0 0.0
2017-Nov-07 22:00N 36°49' W 076°17'0 0.0
2017-Nov-07 21:30N 36°49' W 076°17'0 0.0
2017-Nov-07 21:00N 36°49' W 076°17'0 0.0
2017-Nov-07 20:30N 36°49' W 076°17'0 0.0
2017-Nov-07 19:15N 36°49' W 076°17'0 0.0
2017-Nov-07 18:23N 36°49' W 076°17'0 0.0
2017-Nov-07 18:00N 36°49' W 076°17'3 6.0
2017-Nov-07 17:30N 36°52' W 076°19'611.7
2017-Nov-07 17:00N 36°57' W 076°22'2 3.3
2017-Nov-07 16:15N 36°58' W 076°25'14 6.8
2017-Nov-07 14:11N 36°59' W 076°07'316.1
2017-Nov-07 14:00N 36°58' W 076°04'611.7
2017-Nov-07 13:30N 36°57' W 075°57'18311.6
2017-Nov-06 21:43N 39°38' W 074°07'314.2
2017-Nov-06 21:30N 39°41' W 074°05'714.0
2017-Nov-06 21:00N 39°48' W 074°04'  

Dump ship's entire track history